Time;durP1;ratioP1;P1;durP2;ratioP2;P2;SDS_P1;SDS_P2;PMS_P1;PMS_P2;Temp;Humidity;BMP_temperature;BMP_pressure;BME280_temperature;BME280_humidity;BME280_pressure;Samples;Min_cycle;Max_cycle;Signal;HPM_P1;HPM_P2
2019/05/13 00:00:24;;;;;;;8.2;6.9;;;;;;;;;;;;;
2019/05/13 00:02:48;;;;;;;8;6.9;;;;;;;;;;;;;
2019/05/13 00:05:13;;;;;;;8.9;7.2;;;;;;;;;;;;;
2019/05/13 00:07:39;;;;;;;8.3;6.9;;;;;;;;;;;;;
2019/05/13 00:10:04;;;;;;;7.6;6.7;;;;;;;;;;;;;
2019/05/13 00:12:29;;;;;;;7.4;6.6;;;;;;;;;;;;;
2019/05/13 00:14:54;;;;;;;8.1;6.8;;;;;;;;;;;;;
2019/05/13 00:17:19;;;;;;;9;7.5;;;;;;;;;;;;;
2019/05/13 00:19:44;;;;;;;8;7.2;;;;;;;;;;;;;
2019/05/13 00:22:09;;;;;;;8.6;7.1;;;;;;;;;;;;;
2019/05/13 00:24:35;;;;;;;7.6;6.8;;;;;;;;;;;;;
2019/05/13 00:27:00;;;;;;;8.2;6.6;;;;;;;;;;;;;
2019/05/13 00:29:25;;;;;;;10.3;6.8;;;;;;;;;;;;;
2019/05/13 00:31:50;;;;;;;9;7;;;;;;;;;;;;;
2019/05/13 00:34:15;;;;;;;8.4;6.6;;;;;;;;;;;;;
2019/05/13 00:36:40;;;;;;;8.6;5.9;;;;;;;;;;;;;
2019/05/13 00:39:05;;;;;;;8.1;5.8;;;;;;;;;;;;;
2019/05/13 00:41:30;;;;;;;7.9;6.2;;;;;;;;;;;;;
2019/05/13 00:43:56;;;;;;;7.7;6.9;;;;;;;;;;;;;
2019/05/13 00:46:21;;;;;;;8.7;7.2;;;;;;;;;;;;;
2019/05/13 00:48:46;;;;;;;7.4;6.4;;;;;;;;;;;;;
2019/05/13 00:51:11;;;;;;;7.3;6;;;;;;;;;;;;;
2019/05/13 00:53:36;;;;;;;8.4;6.7;;;;;;;;;;;;;
2019/05/13 00:56:01;;;;;;;7.8;6.2;;;;;;;;;;;;;
2019/05/13 00:58:27;;;;;;;7.3;6;;;;;;;;;;;;;
2019/05/13 01:00:52;;;;;;;8.7;6.7;;;;;;;;;;;;;
2019/05/13 01:03:17;;;;;;;7.3;6.2;;;;;;;;;;;;;
2019/05/13 01:05:42;;;;;;;8;6.6;;;;;;;;;;;;;
2019/05/13 01:08:07;;;;;;;8.6;6.3;;;;;;;;;;;;;
2019/05/13 01:10:32;;;;;;;7.6;6.6;;;;;;;;;;;;;
2019/05/13 01:12:57;;;;;;;8.5;6.6;;;;;;;;;;;;;
2019/05/13 01:15:23;;;;;;;10.3;7.2;;;;;;;;;;;;;
2019/05/13 01:17:48;;;;;;;9.9;7.2;;;;;;;;;;;;;
2019/05/13 01:20:13;;;;;;;9.8;7.7;;;;;;;;;;;;;
2019/05/13 01:22:38;;;;;;;8;6.6;;;;;;;;;;;;;
2019/05/13 01:25:03;;;;;;;8;7;;;;;;;;;;;;;
2019/05/13 01:27:28;;;;;;;8.9;6.5;;;;;;;;;;;;;
2019/05/13 01:29:54;;;;;;;7.6;6.2;;;;;;;;;;;;;
2019/05/13 01:32:19;;;;;;;7.6;6.6;;;;;;;;;;;;;
2019/05/13 01:34:44;;;;;;;7.7;6.2;;;;;;;;;;;;;
2019/05/13 01:37:09;;;;;;;6.9;5.8;;;;;;;;;;;;;
2019/05/13 01:39:34;;;;;;;7.8;4.9;;;;;;;;;;;;;
2019/05/13 01:41:59;;;;;;;7.8;4.8;;;;;;;;;;;;;
2019/05/13 01:44:25;;;;;;;6.8;4.4;;;;;;;;;;;;;
2019/05/13 01:46:50;;;;;;;6.1;4.5;;;;;;;;;;;;;
2019/05/13 01:49:15;;;;;;;8.3;4.8;;;;;;;;;;;;;
2019/05/13 01:51:40;;;;;;;7.2;4.6;;;;;;;;;;;;;
2019/05/13 01:54:05;;;;;;;7.3;4.8;;;;;;;;;;;;;
2019/05/13 01:56:30;;;;;;;6.6;5.2;;;;;;;;;;;;;
2019/05/13 01:58:56;;;;;;;7;5.4;;;;;;;;;;;;;
2019/05/13 02:01:21;;;;;;;7.5;5.3;;;;;;;;;;;;;
2019/05/13 02:03:46;;;;;;;7.2;5.2;;;;;;;;;;;;;
2019/05/13 02:06:11;;;;;;;6.8;5.3;;;;;;;;;;;;;
2019/05/13 02:08:36;;;;;;;6.8;5.4;;;;;;;;;;;;;
2019/05/13 02:11:01;;;;;;;7.5;5;;;;;;;;;;;;;
2019/05/13 02:13:26;;;;;;;8;5.7;;;;;;;;;;;;;
2019/05/13 02:15:51;;;;;;;7.8;5.3;;;;;;;;;;;;;
2019/05/13 02:18:16;;;;;;;6.5;5.3;;;;;;;;;;;;;
2019/05/13 02:20:41;;;;;;;8.2;5.8;;;;;;;;;;;;;
2019/05/13 02:23:09;;;;;;;7.7;5.5;;;;;;;;;;;;;
2019/05/13 02:25:32;;;;;;;8.4;5.8;;;;;;;;;;;;;
2019/05/13 02:27:57;;;;;;;8.3;5.7;;;;;;;;;;;;;
2019/05/13 02:30:23;;;;;;;9.3;6.5;;;;;;;;;;;;;
2019/05/13 02:32:48;;;;;;;7.8;6.5;;;;;;;;;;;;;
2019/05/13 02:35:13;;;;;;;7.3;6.5;;;;;;;;;;;;;
2019/05/13 02:37:38;;;;;;;10;7.2;;;;;;;;;;;;;
2019/05/13 02:40:03;;;;;;;9.7;7.1;;;;;;;;;;;;;
2019/05/13 02:42:28;;;;;;;10.3;7.5;;;;;;;;;;;;;
2019/05/13 02:44:53;;;;;;;9.1;7.7;;;;;;;;;;;;;
2019/05/13 02:47:19;;;;;;;8.6;6.8;;;;;;;;;;;;;
2019/05/13 02:49:44;;;;;;;9.7;7.7;;;;;;;;;;;;;
2019/05/13 02:52:09;;;;;;;10.7;6.8;;;;;;;;;;;;;
2019/05/13 02:54:34;;;;;;;8.9;7.5;;;;;;;;;;;;;
2019/05/13 02:57:01;;;;;;;8.6;7.6;;;;;;;;;;;;;
2019/05/13 02:59:26;;;;;;;8.5;7.6;;;;;;;;;;;;;
2019/05/13 03:01:51;;;;;;;8.9;8;;;;;;;;;;;;;
2019/05/13 03:04:16;;;;;;;11;8.1;;;;;;;;;;;;;
2019/05/13 03:06:41;;;;;;;9.2;7.4;;;;;;;;;;;;;
2019/05/13 03:09:06;;;;;;;9.2;7.8;;;;;;;;;;;;;
2019/05/13 03:11:31;;;;;;;8.7;7.8;;;;;;;;;;;;;
2019/05/13 03:13:57;;;;;;;10.1;7.9;;;;;;;;;;;;;
2019/05/13 03:16:28;;;;;;;11.8;8.7;;;;;;;;;;;;;
2019/05/13 03:18:47;;;;;;;11.8;8.9;;;;;;;;;;;;;
2019/05/13 03:21:12;;;;;;;10.2;8.6;;;;;;;;;;;;;
2019/05/13 03:23:37;;;;;;;10.4;9.2;;;;;;;;;;;;;
2019/05/13 03:26:02;;;;;;;11.2;9.9;;;;;;;;;;;;;
2019/05/13 03:28:27;;;;;;;13.1;9.1;;;;;;;;;;;;;
2019/05/13 03:30:53;;;;;;;12.6;9.7;;;;;;;;;;;;;
2019/05/13 03:33:18;;;;;;;12.8;9.2;;;;;;;;;;;;;
2019/05/13 03:35:43;;;;;;;11.4;9.8;;;;;;;;;;;;;
2019/05/13 03:38:08;;;;;;;13.4;9.9;;;;;;;;;;;;;
2019/05/13 03:40:33;;;;;;;12.7;9.7;;;;;;;;;;;;;
2019/05/13 03:42:59;;;;;;;12.2;10.3;;;;;;;;;;;;;
2019/05/13 03:45:24;;;;;;;12;10.3;;;;;;;;;;;;;
2019/05/13 03:47:48;;;;;;;12.3;10.6;;;;;;;;;;;;;
2019/05/13 03:50:14;;;;;;;14;10.4;;;;;;;;;;;;;
2019/05/13 03:52:39;;;;;;;11.2;9.2;;;;;;;;;;;;;
2019/05/13 03:55:04;;;;;;;11.4;9.2;;;;;;;;;;;;;
2019/05/13 03:57:29;;;;;;;10.8;9.3;;;;;;;;;;;;;
2019/05/13 03:59:54;;;;;;;12.8;9.3;;;;;;;;;;;;;
2019/05/13 04:02:28;;;;;;;10.6;9;;;;;;;7.34;83.55957;975.2319;;;;
2019/05/13 04:04:53;;;;;;;12.4;9.5;;;;;;;7.29;82.79688;975.2121;;;;
2019/05/13 04:07:18;;;;;;;11.6;8.7;;;;;;;7.43;82.65332;975.2231;;;;
2019/05/13 04:09:43;;;;;;;13.2;8.8;;;;;;;7.36;82.23926;975.2089;;;;
2019/05/13 04:12:08;;;;;;;9.6;8.4;;;;;;;7.42;82.18164;975.1587;;;;
2019/05/13 04:14:35;;;;;;;9.9;8;;;;;;;7.38;80.55273;975.1431;;;;
2019/05/13 04:17:00;;;;;;;11.2;7.5;;;;;;;7.43;81.38477;975.2012;;;;
2019/05/13 04:19:26;;;;;;;10;7.1;;;;;;;7.46;78.49902;975.2173;;;;
2019/05/13 04:21:51;;;;;;;12.1;6.6;;;;;;;7.41;78.41113;975.163;;;;
2019/05/13 04:24:16;;;;;;;9.4;6.5;;;;;;;7.3;78.32129;975.2208;;;;
2019/05/13 04:26:42;;;;;;;8.2;6.4;;;;;;;7.31;77.80859;975.1986;;;;
2019/05/13 04:29:07;;;;;;;9.1;6.6;;;;;;;7.31;78.76855;975.2203;;;;
2019/05/13 04:31:33;;;;;;;8.5;6.8;;;;;;;7.25;79.60352;975.2706;;;;
2019/05/13 04:33:58;;;;;;;7.7;6.1;;;;;;;7.23;77.96582;975.2805;;;;
2019/05/13 04:36:23;;;;;;;10.1;6.7;;;;;;;7.2;77.62988;975.3983;;;;
2019/05/13 04:38:48;;;;;;;7.6;5.6;;;;;;;7.23;78.31934;975.3059;;;;
2019/05/13 04:41:13;;;;;;;7.2;5.7;;;;;;;7.29;78.41113;975.2858;;;;
2019/05/13 04:43:38;;;;;;;6.6;5.5;;;;;;;7.26;76.7959;975.3781;;;;
2019/05/13 04:46:03;;;;;;;7.2;5.3;;;;;;;7.28;76.43359;975.3988;;;;
2019/05/13 04:48:29;;;;;;;6.5;5.2;;;;;;;7.36;77.54492;975.3215;;;;
2019/05/13 04:50:55;;;;;;;6.1;4.8;;;;;;;7.27;76.47754;975.4039;;;;
2019/05/13 04:53:20;;;;;;;5;4.1;;;;;;;7.24;75.39746;975.3921;;;;
2019/05/13 04:55:45;;;;;;;6.3;3.8;;;;;;;7.18;74.74707;975.3951;;;;
2019/05/13 04:58:10;;;;;;;7.1;3.9;;;;;;;7.24;73.95898;975.4398;;;;
2019/05/13 05:00:35;;;;;;;6.3;4;;;;;;;7.3;74.37109;975.3978;;;;
2019/05/13 05:03:01;;;;;;;9.1;4.4;;;;;;;7.3;74.00391;975.4239;;;;
2019/05/13 05:05:26;;;;;;;6.1;4.2;;;;;;;7.24;74.50879;975.4786;;;;
2019/05/13 05:07:52;;;;;;;4.6;2.8;;;;;;;7.28;71.63672;975.4984;;;;
2019/05/13 05:10:17;;;;;;;6.2;3.3;;;;;;;7.35;71.97949;975.4042;;;;
2019/05/13 05:12:42;;;;;;;7.2;3.5;;;;;;;7.43;70.43945;975.4952;;;;
2019/05/13 05:15:07;;;;;;;5.3;2.9;;;;;;;7.42;70.31152;975.4612;;;;
2019/05/13 05:17:34;;;;;;;7.6;3.2;;;;;;;7.4;72.18262;975.4925;;;;
2019/05/13 05:19:59;;;;;;;5.2;2.6;;;;;;;7.43;69.90234;975.4391;;;;
2019/05/13 05:22:24;;;;;;;4.8;2.4;;;;;;;7.46;71.03809;975.4724;;;;
2019/05/13 05:25:11;;;;;;;6;2.5;;;;;;;7.43;71.73047;975.56;;;;
2019/05/13 05:27:36;;;;;;;5.6;2.6;;;;;;;7.43;70.49609;975.5388;;;;
2019/05/13 05:30:01;;;;;;;4.9;2.4;;;;;;;7.53;69.91797;975.5856;;;;
2019/05/13 05:32:26;;;;;;;5.3;2.2;;;;;;;7.59;69.5498;975.635;;;;
2019/05/13 05:34:51;;;;;;;5.4;2.5;;;;;;;7.46;70.5918;975.654;;;;
2019/05/13 05:38:43;;;;;;;5.4;2.7;;;;;;;7.42;69.94531;975.7122;;;;
2019/05/13 05:41:10;;;;;;;5.3;2.3;;;;;;;7.44;70.25586;975.6161;;;;
2019/05/13 05:43:35;;;;;;;3.9;2.1;;;;;;;7.38;69.35547;975.6714;;;;
2019/05/13 05:46:00;;;;;;;5.7;2.1;;;;;;;7.44;69.84668;975.5984;;;;
2019/05/13 05:48:26;;;;;;;6.2;2;;;;;;;7.4;69.33789;975.6264;;;;
2019/05/13 05:50:51;;;;;;;6;2.1;;;;;;;7.33;69.3252;975.7253;;;;
2019/05/13 05:53:17;;;;;;;5;1.9;;;;;;;7.41;69.30371;975.6955;;;;
2019/05/13 05:55:41;;;;;;;5.1;2;;;;;;;7.44;69.45801;975.7065;;;;
2019/05/13 05:58:06;;;;;;;5;2.1;;;;;;;7.43;69.53613;975.6685;;;;
2019/05/13 06:00:32;;;;;;;6;2.2;;;;;;;7.47;67.67871;975.7142;;;;
2019/05/13 06:02:57;;;;;;;5.8;2;;;;;;;7.54;67.96582;975.715;;;;
2019/05/13 06:05:22;;;;;;;5.1;1.9;;;;;;;7.51;67.49219;975.7553;;;;
2019/05/13 06:07:47;;;;;;;4.6;1.9;;;;;;;7.49;65.93457;975.7133;;;;
2019/05/13 06:10:13;;;;;;;4.8;1.8;;;;;;;7.56;66.5166;975.6967;;;;
2019/05/13 06:12:38;;;;;;;5.2;1.9;;;;;;;7.7;66.53906;975.7244;;;;
2019/05/13 06:15:03;;;;;;;4.3;2;;;;;;;7.63;65.12207;975.6719;;;;
2019/05/13 06:17:28;;;;;;;5.6;1.9;;;;;;;7.67;66.08789;975.782;;;;
2019/05/13 06:19:53;;;;;;;6;2;;;;;;;7.69;65.86133;975.725;;;;
2019/05/13 06:22:20;;;;;;;6.5;2.2;;;;;;;7.72;66.47266;975.8273;;;;
2019/05/13 06:24:45;;;;;;;5.3;1.9;;;;;;;7.68;65.3584;975.7946;;;;
2019/05/13 06:27:10;;;;;;;3.3;1.9;;;;;;;7.76;64.85449;975.821;;;;
2019/05/13 06:29:35;;;;;;;3.8;2;;;;;;;7.87;64.07227;975.8242;;;;
2019/05/13 06:32:00;;;;;;;6.6;2.2;;;;;;;7.97;63.12598;975.8148;;;;
2019/05/13 06:34:25;;;;;;;4.3;1.8;;;;;;;8.01;65.14453;975.8861;;;;
2019/05/13 06:36:51;;;;;;;4.3;2;;;;;;;8.05;64.8877;975.7977;;;;
2019/05/13 06:39:16;;;;;;;5.6;1.9;;;;;;;8.14;65.02734;975.8278;;;;
2019/05/13 06:41:41;;;;;;;5.3;2.1;;;;;;;8.26;65.13672;975.8479;;;;
2019/05/13 06:44:06;;;;;;;5.8;2.1;;;;;;;8.33;63.41895;975.9264;;;;
2019/05/13 06:46:32;;;;;;;3.8;1.9;;;;;;;8.34;62.84766;975.9129;;;;
2019/05/13 06:48:58;;;;;;;5.5;2;;;;;;;8.42;63.21582;975.9651;;;;
2019/05/13 06:51:24;;;;;;;6;2.1;;;;;;;8.45;63.60938;975.8812;;;;
2019/05/13 06:53:49;;;;;;;5.3;1.8;;;;;;;8.56;64.27832;975.9361;;;;
2019/05/13 06:56:14;;;;;;;4.6;1.9;;;;;;;8.68;64.18066;975.8911;;;;
2019/05/13 06:58:39;;;;;;;4.3;2.1;;;;;;;8.88;65.20898;975.9885;;;;
2019/05/13 07:01:04;;;;;;;6.3;2.1;;;;;;;8.8;63.05176;975.9973;;;;
2019/05/13 07:03:29;;;;;;;4;1.7;;;;;;;8.68;60.57129;976.03;;;;
2019/05/13 07:05:54;;;;;;;4.5;1.7;;;;;;;8.52;62.30078;976.0252;;;;
2019/05/13 07:08:19;;;;;;;4.9;1.9;;;;;;;8.48;62.77539;976.0361;;;;
2019/05/13 07:10:44;;;;;;;3.7;2.1;;;;;;;8.44;62.53027;975.9774;;;;
2019/05/13 07:13:09;;;;;;;5.7;2.1;;;;;;;8.63;62.53516;975.9844;;;;
2019/05/13 07:15:35;;;;;;;4.8;2;;;;;;;8.76;63.32129;976.0037;;;;
2019/05/13 07:18:00;;;;;;;5.5;1.9;;;;;;;8.76;63.37891;975.9992;;;;
2019/05/13 07:20:26;;;;;;;5.2;2;;;;;;;8.85;63.00195;976.0552;;;;
2019/05/13 07:22:51;;;;;;;4.8;2.1;;;;;;;8.94;62.98242;976.059;;;;
2019/05/13 07:25:16;;;;;;;3.9;1.9;;;;;;;8.97;61.33496;975.9967;;;;
2019/05/13 07:27:41;;;;;;;6.4;2.2;;;;;;;9.04;63.50098;976.032;;;;
2019/05/13 07:30:08;;;;;;;6.4;2.4;;;;;;;9.2;62.25;975.9844;;;;
2019/05/13 07:32:33;;;;;;;5.6;2.1;;;;;;;9.27;62.37598;976.0628;;;;
2019/05/13 07:34:58;;;;;;;5.6;2.3;;;;;;;9.2;60.90918;976.1359;;;;
2019/05/13 07:37:23;;;;;;;7.2;2.2;;;;;;;9.24;60.31738;976.0644;;;;
2019/05/13 07:39:48;;;;;;;4.4;2;;;;;;;9.22;60.40625;976.1353;;;;
2019/05/13 07:42:13;;;;;;;6.3;2.1;;;;;;;9.2;60.27832;976.0839;;;;
2019/05/13 07:44:39;;;;;;;4.8;1.9;;;;;;;9.37;60.71387;976.0747;;;;
2019/05/13 07:47:04;;;;;;;5.3;2.1;;;;;;;9.47;61.6582;976.0648;;;;
2019/05/13 07:49:31;;;;;;;5.6;2.4;;;;;;;9.48;59.8584;976.1074;;;;
2019/05/13 07:51:56;;;;;;;6.3;2.3;;;;;;;9.48;59.16895;976.0944;;;;
2019/05/13 07:54:21;;;;;;;6.7;2.2;;;;;;;9.42;60.0332;976.0848;;;;
2019/05/13 07:56:46;;;;;;;4.9;2.1;;;;;;;9.4;60.27148;976.0901;;;;
2019/05/13 07:59:11;;;;;;;5.9;2.1;;;;;;;9.43;60.57324;976.0541;;;;
2019/05/13 08:01:36;;;;;;;7.5;2.2;;;;;;;9.36;60.45996;976.0837;;;;
2019/05/13 08:04:02;;;;;;;6.3;2.2;;;;;;;9.45;61.58594;976.0265;;;;
2019/05/13 08:06:27;;;;;;;6.7;2;;;;;;;9.7;59.2793;976.1213;;;;
2019/05/13 08:08:52;;;;;;;5.6;2.3;;;;;;;9.82;60.32031;976.1527;;;;
2019/05/13 08:11:17;;;;;;;5.1;2.1;;;;;;;9.78;60.08301;975.9863;;;;
2019/05/13 08:13:42;;;;;;;4.8;2;;;;;;;9.87;59.39355;976.0291;;;;
2019/05/13 08:16:07;;;;;;;6.9;2.2;;;;;;;9.93;59.50684;976.0122;;;;
2019/05/13 08:18:32;;;;;;;6.9;2;;;;;;;10.02;60.88672;975.9333;;;;
2019/05/13 08:20:57;;;;;;;5.3;2.2;;;;;;;10.02;59.49609;976.0027;;;;
2019/05/13 08:23:22;;;;;;;6.4;2.1;;;;;;;10.18;58.73633;975.967;;;;
2019/05/13 08:25:47;;;;;;;7.3;2.1;;;;;;;10.31;59.41992;975.9772;;;;
2019/05/13 08:28:13;;;;;;;4.7;2.1;;;;;;;10.56;59.91504;975.9624;;;;
2019/05/13 08:30:38;;;;;;;5.7;2.2;;;;;;;10.59;57.96191;975.9692;;;;
2019/05/13 08:33:03;;;;;;;6.8;2.6;;;;;;;10.7;58.72461;975.9494;;;;
2019/05/13 08:35:28;;;;;;;5.7;2.3;;;;;;;10.69;57.86133;976.0502;;;;
2019/05/13 08:37:53;;;;;;;5.6;2.1;;;;;;;10.51;57.68652;975.9956;;;;
2019/05/13 08:40:18;;;;;;;6.2;2.4;;;;;;;10.48;58.15527;976.0147;;;;
2019/05/13 08:42:43;;;;;;;6.2;2.2;;;;;;;10.59;56.70801;975.978;;;;
2019/05/13 08:45:11;;;;;;;5.9;2.2;;;;;;;10.7;58.42578;976.0235;;;;
2019/05/13 08:47:36;;;;;;;5.1;2.3;;;;;;;10.66;57.6377;976.0129;;;;
2019/05/13 08:50:01;;;;;;;6.1;2.1;;;;;;;10.66;57.31543;975.9956;;;;
2019/05/13 08:52:26;;;;;;;5.7;2.1;;;;;;;10.6;58.56152;975.9514;;;;
2019/05/13 08:54:51;;;;;;;5.5;2.2;;;;;;;10.6;58.14746;975.9556;;;;
2019/05/13 08:57:17;;;;;;;4.1;2.1;;;;;;;10.83;58.51172;975.9763;;;;
2019/05/13 08:59:42;;;;;;;6.5;2.1;;;;;;;10.89;56.46973;975.9944;;;;
2019/05/13 09:02:07;;;;;;;6.4;2.4;;;;;;;10.9;56.93262;975.9978;;;;
2019/05/13 09:04:32;;;;;;;5.2;2.3;;;;;;;11.02;54.56445;976.0078;;;;
2019/05/13 09:06:57;;;;;;;6.5;2.3;;;;;;;11.12;55.0957;975.9796;;;;
2019/05/13 09:09:22;;;;;;;7;2.2;;;;;;;11.03;55.54395;975.9724;;;;
2019/05/13 09:11:47;;;;;;;8.2;2.3;;;;;;;10.85;54.08105;975.8616;;;;
2019/05/13 09:14:13;;;;;;;5.9;2.2;;;;;;;10.9;55.04395;975.8934;;;;
2019/05/13 09:16:42;;;;;;;4.7;1.9;;;;;;;10.96;55.59375;975.9767;;;;
2019/05/13 09:19:07;;;;;;;5.8;1.9;;;;;;;11.04;53.80566;975.8677;;;;
2019/05/13 09:21:32;;;;;;;5.6;2.1;;;;;;;11.25;52.4375;975.8759;;;;
2019/05/13 09:23:57;;;;;;;7.1;2.1;;;;;;;11.37;51.58789;975.8681;;;;
2019/05/13 09:26:22;;;;;;;6.2;1.7;;;;;;;11.56;51.31055;975.76;;;;
2019/05/13 09:28:47;;;;;;;5;1.9;;;;;;;11.65;51.24023;975.8716;;;;
2019/05/13 09:31:12;;;;;;;5.1;1.8;;;;;;;11.63;50.39453;975.8337;;;;
2019/05/13 09:33:37;;;;;;;6.2;2.2;;;;;;;11.82;50.1748;975.8606;;;;
2019/05/13 09:36:02;;;;;;;5.7;2.1;;;;;;;11.67;49.46484;975.7881;;;;
2019/05/13 09:38:27;;;;;;;5.8;2;;;;;;;11.48;51.32227;975.8134;;;;
2019/05/13 09:40:53;;;;;;;5.1;2;;;;;;;11.36;48.95703;975.8909;;;;
2019/05/13 09:43:18;;;;;;;4.8;1.7;;;;;;;11.11;49.33203;975.8455;;;;
2019/05/13 09:45:44;;;;;;;7.1;1.9;;;;;;;11.09;50.41309;975.8166;;;;
2019/05/13 09:48:09;;;;;;;4.7;1.8;;;;;;;11.12;51.4873;975.7755;;;;
2019/05/13 09:50:34;;;;;;;7.5;2.1;;;;;;;11.29;50.63281;975.804;;;;
2019/05/13 09:53:00;;;;;;;7.4;2.2;;;;;;;11.39;49.06445;975.7364;;;;
2019/05/13 09:55:25;;;;;;;5.3;2.3;;;;;;;11.41;47.95898;975.805;;;;
2019/05/13 09:57:50;;;;;;;6.8;2;;;;;;;11.66;46.38281;975.7451;;;;
2019/05/13 10:00:15;;;;;;;3.7;1.8;;;;;;;11.89;48.12695;975.7303;;;;
2019/05/13 10:02:40;;;;;;;5.4;1.8;;;;;;;12.04;44.20605;975.6897;;;;
2019/05/13 10:05:06;;;;;;;6;1.7;;;;;;;12.19;45.13477;975.7667;;;;
2019/05/13 10:07:31;;;;;;;3.9;1.8;;;;;;;12.25;45.3252;975.6758;;;;
2019/05/13 10:09:56;;;;;;;4.9;1.6;;;;;;;12.24;45.55469;975.7548;;;;
2019/05/13 10:12:21;;;;;;;4.2;1.6;;;;;;;12.22;43.11523;975.7474;;;;
2019/05/13 10:14:46;;;;;;;6.2;1.8;;;;;;;12.15;43.75488;975.6434;;;;
2019/05/13 10:17:13;;;;;;;6;1.6;;;;;;;12.12;41.84766;975.658;;;;
2019/05/13 10:19:38;;;;;;;3.2;1.5;;;;;;;11.93;39.50781;975.6445;;;;
2019/05/13 10:22:04;;;;;;;4.2;1.6;;;;;;;11.97;40.37695;975.7164;;;;
2019/05/13 10:24:29;;;;;;;4;1.5;;;;;;;12.08;42.95215;975.8044;;;;
2019/05/13 10:26:54;;;;;;;4.8;1.8;;;;;;;12.32;40.86035;975.7536;;;;
2019/05/13 10:29:19;;;;;;;3.3;1.5;;;;;;;12.57;41.38086;975.7324;;;;
2019/05/13 10:31:45;;;;;;;4.6;1.6;;;;;;;12.7;41.77539;975.688;;;;
2019/05/13 10:34:10;;;;;;;4;1.4;;;;;;;12.81;38.70898;975.5056;;;;
2019/05/13 10:36:35;;;;;;;4.8;1.4;;;;;;;13.01;41.13477;975.5134;;;;
2019/05/13 10:39:00;;;;;;;3.7;1.6;;;;;;;13.08;39.63672;975.539;;;;
2019/05/13 10:41:26;;;;;;;5.7;1.6;;;;;;;12.76;41.3877;975.5446;;;;
2019/05/13 10:43:51;;;;;;;3.2;1.4;;;;;;;12.66;43.72559;975.4861;;;;
2019/05/13 10:46:16;;;;;;;4.4;1.4;;;;;;;12.47;41.47461;975.5386;;;;
2019/05/13 10:48:44;;;;;;;4.9;1.9;;;;;;;12.25;43.12988;975.4796;;;;
2019/05/13 10:51:09;;;;;;;4.5;1.8;;;;;;;12.04;42.53223;975.367;;;;
2019/05/13 10:53:34;;;;;;;6.8;1.6;;;;;;;12.51;42.50879;975.4659;;;;
2019/05/13 10:55:59;;;;;;;3.7;1.5;;;;;;;13.31;39.19336;975.418;;;;
2019/05/13 10:58:24;;;;;;;2.9;1.3;;;;;;;14.4;36.63281;975.3535;;;;
2019/05/13 11:00:49;;;;;;;5.8;1.8;;;;;;;15.72;38.73535;975.3628;;;;
2019/05/13 11:03:14;;;;;;;2.8;1.4;;;;;;;16.87;32.47266;975.3486;;;;
2019/05/13 11:05:40;;;;;;;4.7;1.6;;;;;;;16.07;34.30176;975.303;;;;
2019/05/13 11:08:05;;;;;;;3.5;1.4;;;;;;;15.97;32.51172;975.4164;;;;
2019/05/13 11:10:33;;;;;;;4;1.4;;;;;;;14.87;33.45215;975.4528;;;;
2019/05/13 11:12:58;;;;;;;4.4;1.4;;;;;;;15.13;33.1582;975.4672;;;;
2019/05/13 11:15:23;;;;;;;5.1;1.6;;;;;;;15.05;34.52539;975.4734;;;;
2019/05/13 11:17:48;;;;;;;5.5;1.6;;;;;;;14.35;33.23828;975.4667;;;;
2019/05/13 11:20:13;;;;;;;3.8;1.4;;;;;;;14.11;36.57324;975.4545;;;;
2019/05/13 11:22:38;;;;;;;7.1;1.8;;;;;;;14.08;37.08203;975.4264;;;;
2019/05/13 11:25:04;;;;;;;4;1.6;;;;;;;14.3;36.47363;975.5056;;;;
2019/05/13 11:27:29;;;;;;;3.2;1.5;;;;;;;15.08;36.48047;975.4495;;;;
2019/05/13 11:29:54;;;;;;;4.1;1.6;;;;;;;14.65;36.63086;975.4045;;;;
2019/05/13 11:32:21;;;;;;;4.5;1.6;;;;;;;14.2;37.40527;975.5441;;;;
2019/05/13 11:34:47;;;;;;;4.1;1.5;;;;;;;13.55;37.90625;975.4483;;;;
2019/05/13 11:37:12;;;;;;;3.7;1.7;;;;;;;13.16;38.4502;975.394;;;;
2019/05/13 11:39:37;;;;;;;3.4;1.2;;;;;;;12.87;40.05664;975.4537;;;;
2019/05/13 11:42:02;;;;;;;2.8;1.3;;;;;;;12.88;41.81641;975.4875;;;;
2019/05/13 11:44:30;;;;;;;4.9;1.4;;;;;;;12.82;41.2666;975.4182;;;;
2019/05/13 11:46:55;;;;;;;3.8;1.4;;;;;;;12.95;40.42285;975.3561;;;;
2019/05/13 11:49:21;;;;;;;4.5;1.5;;;;;;;13.09;37.92285;975.3287;;;;
2019/05/13 11:51:46;;;;;;;3.2;1.3;;;;;;;13.25;39.19922;975.3611;;;;
2019/05/13 11:54:15;;;;;;;4;1.5;;;;;;;13.89;39.26953;975.1959;;;;
2019/05/13 11:56:42;;;;;;;2.7;1.3;;;;;;;15.02;36.41699;975.1917;;;;
2019/05/13 11:59:08;;;;;;;3.7;1.4;;;;;;;14.97;34.61035;975.2527;;;;
2019/05/13 12:01:33;;;;;;;3.5;1.5;;;;;;;14.47;34.67578;975.2825;;;;
2019/05/13 12:03:58;;;;;;;3.8;1.5;;;;;;;14.99;37.15918;975.2903;;;;
2019/05/13 12:06:23;;;;;;;5.1;1.6;;;;;;;16.4;33.19629;975.2181;;;;
2019/05/13 12:08:48;;;;;;;3.4;1.3;;;;;;;17.57;35.98633;975.2114;;;;
2019/05/13 12:11:14;;;;;;;4.9;1.5;;;;;;;16.99;31.60547;975.1359;;;;
2019/05/13 12:13:39;;;;;;;3.8;1.5;;;;;;;15.51;30.71973;975.2521;;;;
2019/05/13 12:16:16;;;;;;;4.3;1.3;;;;;;;14.81;31.6123;975.186;;;;
2019/05/13 12:18:41;;;;;;;3;1.5;;;;;;;14.52;33.56445;975.1481;;;;
2019/05/13 12:21:06;;;;;;;2.8;1.2;;;;;;;15.3;32.34473;975.0767;;;;
2019/05/13 12:23:31;;;;;;;3.1;1.3;;;;;;;16.4;30.7002;975.0865;;;;
2019/05/13 12:25:56;;;;;;;4.1;1.3;;;;;;;17.08;31.25;975.1588;;;;
2019/05/13 12:28:21;;;;;;;2.2;1.2;;;;;;;17.67;32.0293;975.1412;;;;
2019/05/13 12:30:46;;;;;;;3.2;1.3;;;;;;;18.02;30.16992;975.0737;;;;
2019/05/13 12:33:12;;;;;;;3.5;1.5;;;;;;;17.83;31.59668;975.1089;;;;
2019/05/13 12:35:37;;;;;;;5.4;1.6;;;;;;;17.83;29.95703;975.1227;;;;
2019/05/13 12:38:03;;;;;;;3.2;1.4;;;;;;;17.13;30.96094;975.1417;;;;
2019/05/13 12:40:28;;;;;;;2.8;1.2;;;;;;;17.22;37.00977;975.2035;;;;
2019/05/13 12:42:53;;;;;;;3.9;1.3;;;;;;;17.77;30.28125;975.0969;;;;
2019/05/13 12:45:18;;;;;;;4;1.5;;;;;;;18.15;31.26758;975.0402;;;;
2019/05/13 12:47:44;;;;;;;4.7;1.5;;;;;;;18.02;33.6123;975.0474;;;;
2019/05/13 12:50:09;;;;;;;3.5;1.4;;;;;;;16.77;31.25098;975.0236;;;;
2019/05/13 12:52:34;;;;;;;4.1;1.5;;;;;;;16.24;34.33887;975.0031;;;;
2019/05/13 12:54:59;;;;;;;4.3;1.2;;;;;;;15.64;31.88086;974.9832;;;;
2019/05/13 12:57:24;;;;;;;5.5;1.5;;;;;;;15.07;33.37402;975.0427;;;;
2019/05/13 12:59:49;;;;;;;3.2;1.3;;;;;;;14.83;32.53125;975.0229;;;;
2019/05/13 13:02:15;;;;;;;3;1.5;;;;;;;15.31;32.35742;974.9355;;;;
2019/05/13 13:04:40;;;;;;;3.9;1.5;;;;;;;15.29;35.39258;974.9639;;;;
2019/05/13 13:07:07;;;;;;;4.5;1.4;;;;;;;14.86;32.17285;974.9763;;;;
2019/05/13 13:09:32;;;;;;;4.5;1.7;;;;;;;14.76;31.88574;974.9587;;;;
2019/05/13 13:11:58;;;;;;;2.3;1.2;;;;;;;14.88;32.63965;974.9924;;;;
2019/05/13 13:14:23;;;;;;;3.4;1.5;;;;;;;15.04;35.52344;974.9309;;;;
2019/05/13 13:16:48;;;;;;;3.5;1.4;;;;;;;14.88;34.12695;975.0276;;;;
2019/05/13 13:19:13;;;;;;;4.4;1.4;;;;;;;14.42;33.33691;974.967;;;;
2019/05/13 13:21:38;;;;;;;3.7;1.2;;;;;;;14.36;34.21484;974.8709;;;;
2019/05/13 13:24:04;;;;;;;5.2;1.6;;;;;;;15.52;32.87305;974.7566;;;;
2019/05/13 13:26:29;;;;;;;4.7;1.5;;;;;;;16.38;29.47461;974.877;;;;
2019/05/13 13:28:54;;;;;;;3.2;1.4;;;;;;;16.64;29.62012;974.9903;;;;
2019/05/13 13:31:19;;;;;;;4.5;1.6;;;;;;;17.2;32.74316;974.8713;;;;
2019/05/13 13:33:44;;;;;;;4.4;1.5;;;;;;;16.83;29.11914;974.9086;;;;
2019/05/13 13:36:09;;;;;;;2.6;1.3;;;;;;;17.03;30.28809;974.8994;;;;
2019/05/13 13:38:35;;;;;;;4.9;1.7;;;;;;;17.12;31.18262;974.8829;;;;
2019/05/13 13:41:00;;;;;;;2.5;1.3;;;;;;;17.32;32.34277;974.8075;;;;
2019/05/13 13:43:25;;;;;;;2.9;1.5;;;;;;;17.85;30.35742;974.8253;;;;
2019/05/13 13:45:51;;;;;;;3.7;1.6;;;;;;;18.19;27.95605;974.8032;;;;
2019/05/13 13:48:16;;;;;;;4.2;1.6;;;;;;;17.39;30.18555;974.867;;;;
2019/05/13 13:50:41;;;;;;;4.9;1.8;;;;;;;17.15;29.43262;974.8184;;;;
2019/05/13 13:53:06;;;;;;;2.8;1.2;;;;;;;17.72;33.34277;974.7364;;;;
2019/05/13 13:55:31;;;;;;;3.4;1.5;;;;;;;18;28.16699;974.7012;;;;
2019/05/13 13:57:56;;;;;;;4.4;1.6;;;;;;;17.4;29.75293;974.7081;;;;
2019/05/13 14:00:22;;;;;;;4;1.7;;;;;;;16.62;29.73535;974.751;;;;
2019/05/13 14:02:48;;;;;;;4;1.7;;;;;;;15.85;30.62695;974.6632;;;;
2019/05/13 14:05:13;;;;;;;3.3;1.7;;;;;;;15.32;33.81348;974.7289;;;;
2019/05/13 14:07:39;;;;;;;4.7;1.5;;;;;;;15.09;33.52734;974.7089;;;;
2019/05/13 14:10:04;;;;;;;4.1;1.5;;;;;;;14.92;35.00293;974.6824;;;;
2019/05/13 14:12:29;;;;;;;3.7;1.5;;;;;;;14.91;33.17578;974.6139;;;;
2019/05/13 14:14:54;;;;;;;4.5;1.7;;;;;;;15.61;32.44922;974.6002;;;;
2019/05/13 14:17:20;;;;;;;3.4;1.4;;;;;;;16.49;31.27832;974.5864;;;;
2019/05/13 14:19:45;;;;;;;4.1;1.6;;;;;;;16.68;30.14844;974.5349;;;;
2019/05/13 14:22:10;;;;;;;3.2;1.5;;;;;;;16.97;29.59473;974.5275;;;;
2019/05/13 14:24:35;;;;;;;4.3;1.6;;;;;;;16.56;29.62598;974.6025;;;;
2019/05/13 14:27:00;;;;;;;3.6;1.5;;;;;;;16.81;33.04102;974.5808;;;;
2019/05/13 14:29:25;;;;;;;4.6;1.4;;;;;;;16.89;31.31836;974.4899;;;;
2019/05/13 14:31:50;;;;;;;3.1;1.3;;;;;;;17.05;29.57715;974.5201;;;;
2019/05/13 14:34:15;;;;;;;4.2;1.6;;;;;;;17.37;34.16992;974.3901;;;;
2019/05/13 14:36:40;;;;;;;4.1;1.4;;;;;;;17.79;29.27637;974.3122;;;;
2019/05/13 14:39:06;;;;;;;3.3;1.8;;;;;;;18.13;26.48828;974.2363;;;;
2019/05/13 14:41:31;;;;;;;7.2;2.2;;;;;;;18.22;26.41211;974.2941;;;;
2019/05/13 14:43:57;;;;;;;4.7;1.9;;;;;;;17.7;26.7666;974.162;;;;
2019/05/13 14:46:23;;;;;;;5.8;3.5;;;;;;;16.93;28.37793;974.298;;;;
2019/05/13 14:48:48;;;;;;;5.3;1.9;;;;;;;16.03;32.7959;974.3058;;;;
2019/05/13 14:51:13;;;;;;;3.6;1.9;;;;;;;15.59;29.51465;974.2639;;;;
2019/05/13 14:53:39;;;;;;;5;2.5;;;;;;;15.51;30.82422;974.3276;;;;
2019/05/13 14:56:04;;;;;;;5.7;2.1;;;;;;;15.54;33.01465;974.2509;;;;
2019/05/13 14:58:29;;;;;;;3.7;1.6;;;;;;;15.96;34.15332;974.2946;;;;
2019/05/13 15:00:55;;;;;;;3.9;1.7;;;;;;;16.46;31.48633;974.2598;;;;
2019/05/13 15:03:20;;;;;;;3.5;1.4;;;;;;;16.92;30.87695;974.2902;;;;
2019/05/13 15:05:45;;;;;;;4.5;1.5;;;;;;;16.91;29.27539;974.2036;;;;
2019/05/13 15:08:10;;;;;;;6.6;1.7;;;;;;;16.7;28.99316;974.2744;;;;
2019/05/13 15:10:35;;;;;;;5;1.8;;;;;;;16.69;29.4834;974.152;;;;
2019/05/13 15:13:00;;;;;;;4.8;1.5;;;;;;;16.65;30.50781;974.1909;;;;
2019/05/13 15:15:25;;;;;;;3.1;1.3;;;;;;;16.54;30.84961;974.1699;;;;
2019/05/13 15:17:50;;;;;;;4.5;2.1;;;;;;;16.68;31.78223;974.1397;;;;
2019/05/13 15:20:16;;;;;;;3.3;2;;;;;;;16.64;31.20703;974.06;;;;
2019/05/13 15:22:41;;;;;;;4.1;1.6;;;;;;;16.61;31.25098;974.08;;;;
2019/05/13 15:25:08;;;;;;;4.2;1.6;;;;;;;16.6;30.30664;974.0808;;;;
2019/05/13 15:27:44;;;;;;;5.4;2.4;;;;;;;16.34;32.52734;974.1127;;;;
2019/05/13 15:30:10;;;;;;;3.8;1.7;;;;;;;15.83;32.37305;974.1429;;;;
2019/05/13 15:32:35;;;;;;;3.9;1.6;;;;;;;15.28;32.34375;974.0664;;;;